Airfield :
LOGIN :

Register | Disclaimer

   EN    FR    IT 

 










Legend :    VFR   Marginal VFR   IFR   Intensive IFR   Very Intensive IFR
Visi :
Ceiling :
>= 8 km
>= 3000ft
5 to 8 km
1000 to 3000 ft
1500m to 5 km
500 to 1000 ft
800 to 1500m
200 to 500 ft
< 800m
< 200 ft
Symbols :   Thunderstorms  Fog  Heavy snow  Heavy precipitations  Wind > 20 kt
SIGMETs :     Misc.  Thunderstorms  Icing  Turbulence  Mountain Waves  Volcanic Ashes






- Airport Elevation : 80 ft
- IATA code : LPL


EGGP - Liverpool John Lennon

CURRENT METAR :
  • 102120Z 26017KT 9999 FEW033 07/04 Q1001

EXPIRED METARs :
  • 102050Z 26019KT 9999 -SHRA SCT038 07/04 Q1001
  • 102020Z 26017KT 9999 -SHRA SCT035 07/05 Q1000
  • 101950Z 26017KT 9999 -SHRA SCT035 08/05 Q1000
  • 101920Z 26017KT 9999 -SHRA SCT012 BKN040 07/06 Q0999
  • 101850Z 28019KT 9999 -SHRA SCT012 OVC028 07/07 Q0999

TAF TAF EGGP
Valid from the 10 at 18:00 until the 11 at 18:00 UTC


101705Z 1018/1118 27018G30KT 9999 FEW030
TEMPO 1018/1020 6000 RA BKN012
PROB30
TEMPO 1018/1019 4000 +RA BKN009
PROB30
TEMPO 1020/1110 7000 SHRA
BECMG 1021/1024 24012KT
BECMG 1102/1105 17010KT
TEMPO 1110/1118 6000 SHRA BKN012
BECMG 1112/1115 26010KT
PROB30
TEMPO 1112/1118 26015G25KT
ATIS : +44 151 907 2000 (option 5 or ext 5150)
Met : +44 871 750 5150



MET'MAP, your aeronautical weather chart ! - Copyright ORBIFLY December 2007 - Disclaimer

ORBIFLY MET'MAP TEAM :

Programming & Development : Alexandra Zaïnal
Concept & original design : Baudouin d'Aumeries
Assistance for programming : Marc-Olivier Méhu
Technical & hardware support : Manuel Goepfert

Contact : metmap@orbifly.com




SOURCES & CREDITS :

   NOAA